Time;durP1;ratioP1;P1;durP2;ratioP2;P2;SDS_P1;SDS_P2;PMS_P1;PMS_P2;Temp;Humidity;BMP_temperature;BMP_pressure;BME280_temperature;BME280_humidity;BME280_pressure;Samples;Min_cycle;Max_cycle;Signal;HPM_P1;HPM_P2
2021/07/07 00:00:48;;;;;;;3.97;2.30;;;;;;;23.19;49.84;99362.94;4420519;32;20097;-76
2021/07/07 00:03:14;;;;;;;5.22;2.20;;;;;;;23.20;49.65;99364.50;4416850;32;20045;-77
2021/07/07 00:05:40;;;;;;;6.90;2.85;;;;;;;23.25;49.62;99363.59;4427466;32;20123;-75
2021/07/07 00:08:06;;;;;;;6.45;3.33;;;;;;;23.46;49.19;99373.78;4422725;32;20453;-75
2021/07/07 00:10:34;;;;;;;6.12;2.20;;;;;;;23.37;49.45;99367.75;4422050;32;20064;-76
2021/07/07 00:13:02;;;;;;;6.90;2.22;;;;;;;23.43;49.25;99368.37;4421826;32;20126;-76
2021/07/07 00:15:31;;;;;;;3.35;2.08;;;;;;;23.86;48.40;99371.44;4421813;32;20085;-78
2021/07/07 00:18:02;;;;;;;9.40;3.40;;;;;;;23.80;48.63;99373.69;4420828;32;20068;-75
2021/07/07 00:20:33;;;;;;;7.93;2.80;;;;;;;23.58;49.04;99385.75;4424383;32;20034;-77
2021/07/07 00:23:00;;;;;;;5.70;2.62;;;;;;;23.72;48.53;99367.13;4422318;32;20433;-76
2021/07/07 00:25:26;;;;;;;7.85;2.67;;;;;;;23.84;48.42;99373.34;4422041;32;20077;-77
2021/07/07 00:27:52;;;;;;;5.00;2.47;;;;;;;23.60;48.73;99379.44;4422703;32;20096;-74
2021/07/07 00:30:18;;;;;;;8.82;2.17;;;;;;;23.96;47.89;99383.97;4420564;32;20052;-75
2021/07/07 00:32:43;;;;;;;8.07;2.87;;;;;;;23.81;48.22;99383.84;4423952;32;20038;-77
2021/07/07 00:35:10;;;;;;;11.50;2.28;;;;;;;23.55;49.00;99378.25;4427569;32;20426;-75
2021/07/07 00:37:36;;;;;;;11.50;2.50;;;;;;;23.97;48.11;99376.91;4423760;32;20107;-77
2021/07/07 00:40:04;;;;;;;5.50;2.65;;;;;;;23.65;48.75;99379.28;4420656;32;20078;-77
2021/07/07 00:42:29;;;;;;;7.18;2.53;;;;;;;24.02;48.13;99373.09;4421896;32;20041;-77
2021/07/07 00:44:55;;;;;;;4.12;2.80;;;;;;;23.59;48.78;99375.03;4424070;32;20090;-75
2021/07/07 00:47:21;;;;;;;4.80;2.20;;;;;;;23.60;48.89;99380.22;4422372;32;20088;-77
2021/07/07 00:49:46;;;;;;;5.47;2.78;;;;;;;23.53;49.05;99381.69;4422193;32;20105;-76
2021/07/07 00:52:13;;;;;;;8.13;2.50;;;;;;;23.62;48.90;99380.41;4420272;32;20063;-75
2021/07/07 00:54:39;;;;;;;4.40;2.20;;;;;;;23.55;49.06;99384.00;4422422;32;20098;-78
2021/07/07 00:57:04;;;;;;;5.60;2.35;;;;;;;23.55;49.31;99392.63;4427140;32;20034;-75
2021/07/07 00:59:31;;;;;;;2.83;1.80;;;;;;;23.63;48.87;99384.84;4422064;32;20112;-76
2021/07/07 01:02:00;;;;;;;2.78;1.95;;;;;;;24.19;48.06;99389.88;4420987;32;20119;-77
2021/07/07 01:04:26;;;;;;;4.87;2.20;;;;;;;24.19;47.95;99390.66;4429744;32;20456;-76
2021/07/07 01:06:51;;;;;;;3.58;1.62;;;;;;;24.27;47.64;99382.09;4422049;32;20038;-76
2021/07/07 01:09:17;;;;;;;4.35;2.12;;;;;;;23.86;48.54;99391.53;4416353;32;20477;-77
2021/07/07 01:11:43;;;;;;;4.28;1.55;;;;;;;23.83;48.43;99381.16;4420860;32;20026;-76
2021/07/07 01:14:09;;;;;;;4.45;1.95;;;;;;;23.87;48.49;99387.31;4421041;32;20078;-77
2021/07/07 01:16:36;;;;;;;4.47;1.70;;;;;;;23.97;48.38;99390.50;4424599;32;20351;-76
2021/07/07 01:19:01;;;;;;;1.92;1.50;;;;;;;23.83;48.55;99398.41;4421950;32;20378;-77
2021/07/07 01:21:27;;;;;;;5.57;1.75;;;;;;;23.77;48.64;99400.66;4423203;32;20033;-76
2021/07/07 01:23:54;;;;;;;3.50;1.45;;;;;;;23.91;48.18;99390.63;4424929;32;20038;-78
2021/07/07 01:26:20;;;;;;;1.80;1.58;;;;;;;24.12;48.10;99399.25;4420459;32;20380;-76
2021/07/07 01:28:46;;;;;;;3.05;1.48;;;;;;;24.36;47.42;99401.69;4420021;32;20119;-75
2021/07/07 01:31:12;;;;;;;3.97;1.65;;;;;;;24.12;47.63;99410.72;4421488;32;20388;-76
2021/07/07 01:33:38;;;;;;;3.42;1.87;;;;;;;24.13;47.79;99415.13;4423766;32;20053;-76
2021/07/07 01:36:04;;;;;;;1.95;1.20;;;;;;;24.35;47.28;99405.91;4424400;32;20030;-77
2021/07/07 01:38:29;;;;;;;2.45;1.37;;;;;;;24.27;47.48;99405.84;4422599;32;20060;-75
2021/07/07 01:40:56;;;;;;;1.95;1.20;;;;;;;24.34;47.13;99419.53;4423696;32;20100;-77
2021/07/07 01:43:22;;;;;;;3.50;1.40;;;;;;;24.56;47.00;99416.00;4421564;32;20425;-77
2021/07/07 01:45:48;;;;;;;2.97;1.50;;;;;;;24.37;47.21;99409.75;4419708;32;20531;-76
2021/07/07 01:48:14;;;;;;;4.35;1.60;;;;;;;24.77;46.32;99413.84;4420762;32;20468;-77
2021/07/07 01:50:39;;;;;;;5.35;1.58;;;;;;;24.93;46.00;99412.56;4422426;32;20439;-76
2021/07/07 01:53:05;;;;;;;6.03;1.73;;;;;;;24.41;46.96;99415.91;4422223;32;20073;-74
2021/07/07 01:55:31;;;;;;;3.35;1.65;;;;;;;24.60;46.90;99427.13;4423595;32;20078;-75
2021/07/07 01:57:57;;;;;;;3.12;1.48;;;;;;;24.54;47.17;99412.91;4423035;32;20035;-75
2021/07/07 02:00:26;;;;;;;5.43;1.62;;;;;;;24.78;46.83;99423.22;4423453;32;20134;-75
2021/07/07 02:02:54;;;;;;;2.35;1.48;;;;;;;24.89;46.67;99423.69;4422886;32;20021;-75
2021/07/07 02:05:24;;;;;;;5.78;1.62;;;;;;;25.04;46.52;99428.72;4423828;32;20037;-75
2021/07/07 02:07:50;;;;;;;5.18;1.80;;;;;;;25.17;46.21;99426.47;4419018;32;20081;-77
2021/07/07 02:10:18;;;;;;;3.70;1.65;;;;;;;24.94;46.38;99428.47;4422011;32;20080;-77
2021/07/07 02:12:46;;;;;;;4.65;1.75;;;;;;;25.29;45.83;99429.75;4421541;32;20073;-77
2021/07/07 02:15:17;;;;;;;4.87;1.83;;;;;;;25.05;46.49;99425.28;4421259;32;20070;-74
2021/07/07 02:17:44;;;;;;;3.33;2.17;;;;;;;25.00;46.89;99420.44;4419736;32;20515;-75
2021/07/07 02:20:11;;;;;;;4.95;2.10;;;;;;;24.96;47.06;99422.94;4423321;32;20141;-76
2021/07/07 02:22:38;;;;;;;5.05;1.70;;;;;;;24.76;47.15;99420.91;4424861;32;20030;-74
2021/07/07 02:25:08;;;;;;;2.75;1.75;;;;;;;24.80;47.22;99426.31;4426097;32;20029;-75
2021/07/07 02:27:34;;;;;;;3.30;1.85;;;;;;;24.85;47.21;99425.38;4419982;32;20073;-76
2021/07/07 02:30:01;;;;;;;4.15;1.92;;;;;;;24.79;47.18;99424.78;4422926;32;20462;-77
2021/07/07 02:32:27;;;;;;;2.65;2.17;;;;;;;25.10;46.73;99438.72;4425315;32;20116;-75
2021/07/07 02:34:53;;;;;;;4.47;2.15;;;;;;;25.16;46.57;99429.91;4425901;32;20704;-75
2021/07/07 02:37:19;;;;;;;3.35;2.00;;;;;;;25.15;46.44;99428.34;4427622;32;20034;-77
2021/07/07 02:39:44;;;;;;;4.55;1.87;;;;;;;25.48;45.71;99430.22;4427022;32;20545;-77
2021/07/07 02:42:10;;;;;;;5.90;1.98;;;;;;;25.71;45.01;99438.91;4419082;32;20085;-76
2021/07/07 02:44:36;;;;;;;3.22;2.10;;;;;;;25.63;45.30;99435.22;4426852;32;20393;-76
2021/07/07 02:47:02;;;;;;;4.22;2.60;;;;;;;25.57;45.18;99452.69;4425097;32;20510;-78
2021/07/07 02:49:28;;;;;;;4.55;1.90;;;;;;;25.67;45.08;99455.81;4423537;32;20075;-75
2021/07/07 02:51:53;;;;;;;4.40;1.80;;;;;;;25.84;44.88;99458.88;4426381;32;20486;-76
2021/07/07 02:54:19;;;;;;;2.28;1.85;;;;;;;25.92;44.80;99466.19;4425206;32;20461;-75
2021/07/07 02:56:44;;;;;;;5.97;2.58;;;;;;;26.01;44.40;99459.13;4429500;32;20046;-77
2021/07/07 02:59:10;;;;;;;6.12;2.03;;;;;;;26.10;44.35;99464.28;4425883;32;20559;-76
2021/07/07 03:01:36;;;;;;;3.85;1.83;;;;;;;25.86;44.84;99467.72;4417817;32;20403;-76
2021/07/07 03:04:02;;;;;;;3.00;1.98;;;;;;;25.80;44.87;99462.13;4421693;32;20357;-75
2021/07/07 03:06:27;;;;;;;4.18;2.15;;;;;;;25.80;44.63;99465.03;4424244;32;20052;-75
2021/07/07 03:08:53;;;;;;;3.15;2.17;;;;;;;25.82;44.78;99465.22;4425903;32;20052;-75
2021/07/07 03:11:19;;;;;;;5.97;2.45;;;;;;;25.69;45.09;99470.38;4424636;32;20459;-77
2021/07/07 03:13:45;;;;;;;3.33;2.03;;;;;;;25.43;45.63;99465.72;4427730;32;20328;-76
2021/07/07 03:16:11;;;;;;;3.87;2.40;;;;;;;25.45;45.58;99468.03;4428680;32;20100;-75
2021/07/07 03:18:36;;;;;;;4.25;2.62;;;;;;;25.62;45.21;99474.81;4424177;32;20544;-77
2021/07/07 03:21:02;;;;;;;4.12;2.65;;;;;;;25.34;45.82;99472.81;4422938;32;20455;-75
2021/07/07 03:23:28;;;;;;;3.90;2.20;;;;;;;25.37;45.81;99487.41;4423621;32;20416;-77
2021/07/07 03:25:55;;;;;;;4.05;2.65;;;;;;;25.16;46.45;99479.62;4425805;32;20536;-76
2021/07/07 03:28:22;;;;;;;4.72;2.15;;;;;;;25.10;46.64;99487.66;4425291;32;20133;-75
2021/07/07 03:30:48;;;;;;;5.18;2.35;;;;;;;25.20;46.42;99485.78;4423775;32;20137;-77
2021/07/07 03:33:15;;;;;;;4.82;2.55;;;;;;;25.16;46.54;99491.13;4425263;32;20370;-75
2021/07/07 03:35:40;;;;;;;4.53;2.65;;;;;;;25.41;46.24;99494.34;4427111;32;20086;-77
2021/07/07 03:38:07;;;;;;;4.78;2.58;;;;;;;25.25;46.29;99487.72;4423346;32;20069;-75
2021/07/07 03:40:34;;;;;;;4.72;2.67;;;;;;;25.46;46.02;99498.37;4423806;32;20058;-77
2021/07/07 03:43:00;;;;;;;4.68;2.53;;;;;;;25.56;45.86;99508.00;4427429;32;20073;-77
2021/07/07 03:45:27;;;;;;;5.30;2.55;;;;;;;25.71;45.41;99502.28;4421913;32;20082;-77
2021/07/07 03:47:53;;;;;;;4.53;2.80;;;;;;;25.73;45.36;99499.59;4424619;32;20037;-76
2021/07/07 03:50:19;;;;;;;8.10;3.00;;;;;;;25.62;45.48;99515.16;4425459;32;20155;-75
2021/07/07 03:52:46;;;;;;;4.85;3.12;;;;;;;25.58;45.65;99508.97;4421140;32;20046;-76
2021/07/07 03:55:15;;;;;;;4.82;3.17;;;;;;;25.62;45.51;99514.38;4436583;32;20136;-75
2021/07/07 03:57:41;;;;;;;5.30;3.00;;;;;;;25.57;45.70;99521.06;4423395;32;20081;-74
2021/07/07 04:00:09;;;;;;;5.00;2.78;;;;;;;25.42;45.88;99513.16;4424993;32;20025;-77
2021/07/07 04:02:35;;;;;;;4.80;2.95;;;;;;;25.50;45.68;99533.34;4424309;32;20351;-75
2021/07/07 04:05:01;;;;;;;4.32;2.80;;;;;;;25.47;45.81;99529.50;4423883;32;20461;-76
2021/07/07 04:07:27;;;;;;;4.35;2.70;;;;;;;25.54;45.73;99527.97;4420471;32;20382;-76
2021/07/07 04:09:52;;;;;;;5.68;3.28;;;;;;;25.55;45.51;99541.81;4420577;32;20108;-77
2021/07/07 04:12:18;;;;;;;4.15;3.40;;;;;;;25.69;45.20;99543.19;4421375;32;20022;-77
2021/07/07 04:14:44;;;;;;;5.55;3.35;;;;;;;25.84;45.06;99545.34;4424944;32;20251;-75
2021/07/07 04:17:09;;;;;;;4.30;3.45;;;;;;;25.86;44.81;99543.41;4422106;32;20084;-75
2021/07/07 04:19:35;;;;;;;6.60;2.95;;;;;;;26.01;44.68;99536.97;4425168;32;20409;-76
2021/07/07 04:22:01;;;;;;;5.20;3.30;;;;;;;26.11;44.20;99543.69;4416163;32;20042;-75
2021/07/07 04:24:27;;;;;;;5.30;3.22;;;;;;;26.27;44.03;99537.38;4426920;32;20141;-75
2021/07/07 04:26:53;;;;;;;3.15;2.62;;;;;;;26.41;43.80;99535.03;4426550;32;20101;-75
2021/07/07 04:29:19;;;;;;;3.72;2.80;;;;;;;26.36;43.44;99531.03;4420996;32;20136;-75
2021/07/07 04:31:46;;;;;;;3.75;3.00;;;;;;;26.71;43.05;99537.94;4425080;32;20187;-78
2021/07/07 04:34:12;;;;;;;5.82;3.12;;;;;;;26.96;42.78;99548.28;4420682;32;20450;-77
2021/07/07 04:36:38;;;;;;;4.87;3.22;;;;;;;26.64;42.89;99548.16;4425964;32;20120;-74
2021/07/07 04:39:06;;;;;;;6.28;3.83;;;;;;;26.74;42.80;99557.75;4423772;32;20449;-74
2021/07/07 04:41:32;;;;;;;4.40;2.95;;;;;;;26.79;42.66;99553.88;4422020;32;20385;-75
2021/07/07 04:43:59;;;;;;;5.43;3.35;;;;;;;26.80;42.96;99554.66;4418562;32;20096;-75
2021/07/07 04:46:24;;;;;;;3.95;3.00;;;;;;;26.98;42.52;99554.25;4422049;32;20433;-74
2021/07/07 04:48:50;;;;;;;5.43;2.95;;;;;;;27.05;42.44;99564.25;4423730;32;20516;-76
2021/07/07 04:51:16;;;;;;;4.00;2.50;;;;;;;27.05;42.49;99564.25;4423104;32;20100;-76
2021/07/07 04:53:42;;;;;;;2.60;2.20;;;;;;;27.11;42.33;99568.47;4421600;32;20077;-74
2021/07/07 04:56:08;;;;;;;3.75;2.70;;;;;;;27.00;42.31;99576.78;4426687;32;20521;-77
2021/07/07 04:58:36;;;;;;;4.32;2.90;;;;;;;26.92;42.85;99582.56;4425600;32;20139;-74
2021/07/07 05:01:02;;;;;;;2.53;2.03;;;;;;;27.31;42.11;99583.28;4419956;32;20034;-76
2021/07/07 05:03:27;;;;;;;3.70;2.50;;;;;;;26.86;42.24;99587.78;4421587;32;20085;-75
2021/07/07 05:05:53;;;;;;;4.00;2.40;;;;;;;26.96;42.62;99599.50;4426601;32;20132;-76
2021/07/07 05:08:19;;;;;;;3.83;2.45;;;;;;;27.20;42.47;99601.75;4425383;32;20072;-78
2021/07/07 05:10:46;;;;;;;5.25;2.15;;;;;;;27.20;42.12;99601.75;4435382;32;20490;-75
2021/07/07 05:13:13;;;;;;;2.90;1.83;;;;;;;27.30;41.81;99605.59;4422264;32;20080;-77
2021/07/07 05:15:38;;;;;;;2.78;2.10;;;;;;;27.32;41.52;99619.47;4423088;32;20541;-76
2021/07/07 05:18:07;;;;;;;4.35;2.08;;;;;;;27.53;41.28;99626.53;4425748;32;20041;-75
2021/07/07 05:20:33;;;;;;;3.03;1.70;;;;;;;27.49;41.53;99620.41;4421948;32;20596;-75
2021/07/07 05:23:06;;;;;;;3.45;1.48;;;;;;;27.46;41.59;99627.34;4423392;32;20038;-76
2021/07/07 05:25:34;;;;;;;2.97;1.52;;;;;;;27.10;41.99;99630.47;4419491;32;20081;-77
2021/07/07 05:28:01;;;;;;;3.35;1.30;;;;;;;27.13;42.26;99625.66;4424191;32;20095;-75
2021/07/07 05:30:28;;;;;;;2.15;1.50;;;;;;;27.19;41.97;99626.97;4418351;32;20049;-74
2021/07/07 05:32:54;;;;;;;2.92;1.58;;;;;;;27.49;41.73;99631.19;4420576;32;20037;-76
2021/07/07 05:35:20;;;;;;;2.17;1.48;;;;;;;27.25;42.29;99631.81;4423945;32;20030;-74
2021/07/07 05:37:46;;;;;;;1.52;1.30;;;;;;;26.81;43.19;99634.16;4415827;32;20045;-75
2021/07/07 05:40:13;;;;;;;2.35;1.40;;;;;;;26.71;43.33;99636.06;4422045;32;20080;-75
2021/07/07 05:42:39;;;;;;;1.87;1.37;;;;;;;26.92;43.21;99642.44;4421085;32;20085;-75
2021/07/07 05:45:05;;;;;;;1.40;1.00;;;;;;;27.02;43.00;99643.37;4422267;32;20077;-77
2021/07/07 05:47:31;;;;;;;4.20;1.50;;;;;;;26.96;43.27;99648.56;4421454;32;20184;-73
2021/07/07 05:49:57;;;;;;;3.55;1.52;;;;;;;26.94;43.64;99646.25;4422925;32;20605;-76
2021/07/07 05:52:24;;;;;;;2.70;1.10;;;;;;;26.91;43.94;99647.41;4422114;32;20061;-77
2021/07/07 05:54:51;;;;;;;2.95;1.30;;;;;;;27.05;43.98;99639.31;4423037;32;20059;-75
2021/07/07 05:57:17;;;;;;;2.33;1.40;;;;;;;27.08;44.02;99646.84;4421163;32;20022;-77
2021/07/07 05:59:43;;;;;;;2.12;1.45;;;;;;;26.97;44.21;99653.78;4421213;32;20144;-78
2021/07/07 06:02:10;;;;;;;1.98;1.30;;;;;;;26.94;44.24;99654.94;4421567;32;20044;-76
2021/07/07 06:04:37;;;;;;;2.42;1.15;;;;;;;26.95;44.15;99664.38;4423096;32;20153;-74
2021/07/07 06:07:03;;;;;;;1.80;1.30;;;;;;;26.88;43.87;99659.38;4419401;32;20103;-76
2021/07/07 06:09:29;;;;;;;3.53;1.90;;;;;;;26.94;44.13;99654.94;4424176;32;20056;-75
2021/07/07 06:11:55;;;;;;;2.75;1.40;;;;;;;26.89;44.19;99669.56;4421533;32;20136;-75
2021/07/07 06:14:21;;;;;;;2.62;1.62;;;;;;;27.08;43.88;99667.81;4424910;32;20072;-75
2021/07/07 06:16:49;;;;;;;2.12;1.87;;;;;;;27.08;43.74;99659.16;4419069;32;20151;-75
2021/07/07 06:19:14;;;;;;;3.05;2.30;;;;;;;26.90;43.92;99673.97;4419905;32;20038;-75
2021/07/07 06:21:40;;;;;;;4.53;2.83;;;;;;;27.08;43.65;99673.59;4419229;32;20103;-77
2021/07/07 06:24:06;;;;;;;4.30;3.17;;;;;;;27.06;43.53;99679.19;4422408;32;20513;-77
2021/07/07 06:26:34;;;;;;;6.37;3.97;;;;;;;26.97;43.83;99673.22;4424587;32;20034;-76
2021/07/07 06:29:04;;;;;;;5.55;3.80;;;;;;;26.64;44.32;99677.25;4423655;32;20064;-75
2021/07/07 06:31:31;;;;;;;7.25;3.55;;;;;;;27.17;43.66;99675.13;4415389;32;20034;-76
2021/07/07 06:33:57;;;;;;;7.43;3.83;;;;;;;26.87;44.02;99683.78;4420413;32;20077;-76
2021/07/07 06:36:23;;;;;;;6.82;3.37;;;;;;;27.04;43.65;99689.78;4416921;32;20050;-77
2021/07/07 06:38:49;;;;;;;6.50;3.80;;;;;;;26.78;44.03;99693.03;4420309;32;20075;-77
2021/07/07 06:41:15;;;;;;;6.93;4.30;;;;;;;26.90;44.21;99697.84;4416608;32;20256;-75
2021/07/07 06:43:41;;;;;;;6.90;4.00;;;;;;;27.01;44.16;99703.25;4420478;32;20077;-77
2021/07/07 06:46:07;;;;;;;7.60;4.03;;;;;;;27.12;44.16;99705.00;4414242;32;20523;-76
2021/07/07 06:48:33;;;;;;;8.68;4.22;;;;;;;27.42;43.86;99707.88;4410695;32;20088;-77
2021/07/07 06:50:59;;;;;;;7.45;4.68;;;;;;;27.00;43.79;99704.59;4413600;32;20087;-76
2021/07/07 06:53:25;;;;;;;8.10;4.28;;;;;;;27.36;42.97;99709.44;4413659;32;20100;-78
2021/07/07 06:55:52;;;;;;;9.75;5.78;;;;;;;27.60;42.54;99715.34;4416890;32;20101;-77
2021/07/07 06:58:18;;;;;;;7.68;4.45;;;;;;;27.68;42.54;99719.00;4417782;32;20396;-77
2021/07/07 07:00:44;;;;;;;5.68;4.25;;;;;;;27.90;42.11;99728.97;4408732;32;20049;-78
2021/07/07 07:03:10;;;;;;;7.80;4.15;;;;;;;28.15;41.45;99732.72;4410701;32;20078;-77
2021/07/07 07:05:35;;;;;;;5.97;4.55;;;;;;;28.18;41.16;99734.47;4405428;32;20050;-78
2021/07/07 07:08:02;;;;;;;4.53;3.12;;;;;;;28.40;40.40;99739.38;4411297;32;20146;-79
2021/07/07 07:10:28;;;;;;;5.07;3.58;;;;;;;28.50;40.58;99741.06;4412708;32;20050;-79
2021/07/07 07:12:54;;;;;;;5.53;3.60;;;;;;;28.77;40.09;99744.97;4409850;32;20359;-77
2021/07/07 07:15:19;;;;;;;5.60;3.40;;;;;;;28.91;39.45;99754.16;4413784;32;20130;-78
2021/07/07 07:17:45;;;;;;;4.40;3.03;;;;;;;29.11;39.08;99758.09;4417887;32;20090;-80
2021/07/07 07:20:15;;;;;;;4.25;3.25;;;;;;;29.15;38.36;99764.22;4412279;32;20536;-78
2021/07/07 07:22:41;;;;;;;4.12;3.12;;;;;;;29.50;37.75;99763.72;4415329;32;20029;-78
2021/07/07 07:25:09;;;;;;;4.78;3.17;;;;;;;29.40;37.90;99768.66;4414272;32;20319;-77
2021/07/07 07:27:36;;;;;;;5.03;3.60;;;;;;;29.36;37.86;99773.34;4415208;32;20062;-75
2021/07/07 07:30:05;;;;;;;4.97;3.00;;;;;;;29.44;37.58;99774.03;4414281;32;20065;-77
2021/07/07 07:32:31;;;;;;;2.85;2.55;;;;;;;29.93;36.99;99773.94;4417120;32;20212;-78
2021/07/07 07:34:56;;;;;;;4.55;3.08;;;;;;;29.65;36.83;99780.25;4417628;32;20069;-75
2021/07/07 07:37:26;;;;;;;6.60;3.17;;;;;;;29.56;37.08;99778.75;4417014;32;20160;-75
2021/07/07 07:39:54;;;;;;;4.37;3.20;;;;;;;30.15;36.11;99784.53;4419512;32;20143;-78
2021/07/07 07:42:20;;;;;;;8.23;2.97;;;;;;;30.56;35.80;99789.47;4416480;32;20100;-79
2021/07/07 07:44:47;;;;;;;5.72;3.58;;;;;;;29.98;35.87;99784.53;4416839;32;20045;-76
2021/07/07 07:47:15;;;;;;;4.68;2.42;;;;;;;30.45;35.97;99790.00;4415384;32;20078;-76
2021/07/07 07:49:41;;;;;;;3.65;2.37;;;;;;;30.18;36.30;99792.03;4415530;32;20112;-75
2021/07/07 07:52:07;;;;;;;5.53;2.60;;;;;;;30.32;36.19;99801.97;4419715;32;20532;-76
2021/07/07 07:54:34;;;;;;;7.12;3.42;;;;;;;30.39;35.99;99804.00;4417493;32;20042;-79
2021/07/07 07:57:00;;;;;;;6.87;2.47;;;;;;;30.51;36.06;99811.59;4419133;32;20026;-80
2021/07/07 07:59:27;;;;;;;6.05;2.92;;;;;;;30.79;34.67;99807.38;4417200;32;20074;-77
2021/07/07 08:01:53;;;;;;;6.97;2.90;;;;;;;30.89;34.98;99810.34;4416113;32;20052;-80
2021/07/07 08:04:19;;;;;;;3.80;2.60;;;;;;;30.33;35.34;99818.00;4416806;32;20078;-75
2021/07/07 08:06:46;;;;;;;5.15;2.60;;;;;;;30.45;35.07;99819.81;4415307;32;20132;-75
2021/07/07 08:09:12;;;;;;;4.60;2.83;;;;;;;30.74;34.74;99817.91;4418955;32;20101;-76
2021/07/07 08:11:39;;;;;;;5.60;3.15;;;;;;;30.97;34.35;99828.44;4416259;32;20033;-77
2021/07/07 08:14:05;;;;;;;7.55;2.90;;;;;;;31.04;34.33;99830.47;4418026;32;20081;-76
2021/07/07 08:16:30;;;;;;;7.20;3.00;;;;;;;31.56;33.48;99844.19;4418501;32;20096;-75
2021/07/07 08:18:56;;;;;;;4.90;2.62;;;;;;;31.72;33.09;99830.94;4417894;32;20088;-76
2021/07/07 08:21:22;;;;;;;5.60;3.12;;;;;;;31.53;32.84;99827.97;4417454;32;20045;-75
2021/07/07 08:23:48;;;;;;;6.90;3.10;;;;;;;31.80;32.79;99837.41;4416499;32;20104;-76
2021/07/07 08:26:14;;;;;;;9.27;2.53;;;;;;;32.18;32.21;99849.13;4417790;32;20223;-76
2021/07/07 08:28:40;;;;;;;5.35;2.33;;;;;;;31.62;33.09;99858.44;4419735;32;20197;-77
2021/07/07 08:31:06;;;;;;;10.00;2.22;;;;;;;31.73;32.71;99864.47;4412588;32;20470;-76
2021/07/07 08:33:31;;;;;;;4.00;2.20;;;;;;;31.49;33.14;99862.56;4414662;32;20476;-74
2021/07/07 08:35:57;;;;;;;2.05;1.65;;;;;;;31.49;33.12;99856.72;4417092;32;20476;-75
2021/07/07 08:38:23;;;;;;;3.30;1.62;;;;;;;31.60;32.76;99867.78;4391056;32;20760;-75
2021/07/07 08:40:49;;;;;;;7.40;2.22;;;;;;;31.26;33.39;99875.88;4402251;32;20077;-77
2021/07/07 08:43:16;;;;;;;6.32;2.10;;;;;;;31.74;33.26;99868.12;4410741;32;20103;-76
2021/07/07 08:45:42;;;;;;;4.43;1.77;;;;;;;31.68;33.37;99877.16;4415937;32;20065;-76
2021/07/07 08:48:07;;;;;;;2.45;1.80;;;;;;;31.84;32.20;99881.38;4410065;32;20154;-78
2021/07/07 08:50:35;;;;;;;3.05;2.37;;;;;;;31.62;32.65;99882.50;4412020;32;20846;-77
2021/07/07 08:53:03;;;;;;;3.65;2.30;;;;;;;31.65;32.69;99881.28;4412724;32;20073;-76
2021/07/07 08:55:31;;;;;;;2.65;2.00;;;;;;;31.96;32.72;99882.34;4408491;32;20272;-76
2021/07/07 08:57:57;;;;;;;6.05;2.00;;;;;;;32.35;31.84;99880.28;4413862;32;20103;-77
2021/07/07 09:00:33;;;;;;;4.20;1.80;;;;;;;32.99;31.10;99885.19;4414479;32;20103;-75
2021/07/07 09:03:11;;;;;;;3.15;1.95;;;;;;;33.30;30.36;99885.28;4414701;32;20105;-74
2021/07/07 09:05:58;;;;;;;5.47;1.92;;;;;;;33.62;29.52;99890.56;4412324;32;20091;-74
2021/07/07 09:11:26;;;;;;;2.92;1.80;;;;;;;33.29;30.49;99904.16;3970219;32;15169123;-77
2021/07/07 09:14:14;;;;;;;2.87;2.08;;;;;;;33.29;30.49;99904.16;4429152;32;20077;-76
2021/07/07 09:16:50;;;;;;;4.68;2.20;;;;;;;33.11;29.92;99909.44;4424741;32;20209;-76
2021/07/07 09:19:18;;;;;;;7.53;2.20;;;;;;;33.05;30.54;99906.06;4425068;32;20076;-75
2021/07/07 09:21:53;;;;;;;6.03;2.67;;;;;;;32.51;33.50;99926.00;4419971;32;20071;-76
2021/07/07 09:24:24;;;;;;;4.85;2.40;;;;;;;31.19;36.75;99920.34;4423298;32;20056;-77
2021/07/07 09:26:59;;;;;;;4.50;3.47;;;;;;;30.23;36.88;99913.75;4424684;32;20140;-76
2021/07/07 09:29:46;;;;;;;3.55;2.60;;;;;;;30.34;38.65;99915.38;4427457;32;20113;-78
2021/07/07 09:32:26;;;;;;;5.20;2.55;;;;;;;30.52;37.78;99914.00;4427070;32;20136;-78
2021/07/07 09:34:56;;;;;;;4.05;2.85;;;;;;;31.04;38.05;99918.41;4424844;32;20502;-75
2021/07/07 09:37:27;;;;;;;2.80;2.28;;;;;;;31.10;36.41;99926.88;4426515;32;20044;-79
2021/07/07 09:39:55;;;;;;;3.30;2.40;;;;;;;31.29;35.27;99921.22;4427030;32;20151;-78
2021/07/07 09:42:23;;;;;;;3.55;2.53;;;;;;;30.95;35.65;99918.38;4418898;32;20065;-75
2021/07/07 09:44:49;;;;;;;5.37;2.17;;;;;;;31.40;35.33;99926.47;4424546;32;20118;-76
2021/07/07 09:47:19;;;;;;;2.95;1.95;;;;;;;31.67;33.46;99927.22;4429641;32;20452;-74
2021/07/07 09:49:47;;;;;;;2.85;2.12;;;;;;;32.74;32.33;99930.59;4427523;32;20077;-77
2021/07/07 09:52:16;;;;;;;5.07;2.50;;;;;;;31.95;33.32;99932.41;4429690;32;20378;-75
2021/07/07 09:54:43;;;;;;;4.15;2.03;;;;;;;32.28;32.67;99925.59;4425944;32;20053;-77
2021/07/07 09:57:09;;;;;;;2.45;1.85;;;;;;;32.60;31.74;99925.22;4430319;32;20074;-78
2021/07/07 09:59:36;;;;;;;4.53;2.45;;;;;;;32.44;32.14;99929.81;4425398;32;20061;-77
2021/07/07 10:02:04;;;;;;;3.08;2.53;;;;;;;32.54;31.77;99939.31;4417323;32;20548;-76
2021/07/07 10:04:33;;;;;;;6.87;2.80;;;;;;;32.27;32.62;99947.37;4411763;32;20087;-77
2021/07/07 10:07:00;;;;;;;7.20;2.72;;;;;;;32.71;32.15;99943.47;4412545;32;20078;-76
2021/07/07 10:09:27;;;;;;;4.40;3.00;;;;;;;32.80;31.75;99945.63;4411912;32;20156;-75
2021/07/07 10:11:55;;;;;;;5.50;2.53;;;;;;;33.09;31.47;99940.56;4411669;32;20942;-76
2021/07/07 10:14:22;;;;;;;8.23;3.15;;;;;;;32.86;31.60;99943.97;4415327;32;20121;-74
2021/07/07 10:16:50;;;;;;;3.80;2.90;;;;;;;33.38;31.07;99945.00;4410880;32;20130;-77
2021/07/07 10:19:17;;;;;;;4.30;3.30;;;;;;;33.84;31.24;99945.44;4413613;32;20104;-77
2021/07/07 10:21:43;;;;;;;4.65;2.47;;;;;;;34.33;30.27;99949.72;4407727;32;20467;-79
2021/07/07 10:24:10;;;;;;;3.92;2.70;;;;;;;34.55;29.24;99954.19;4406280;32;20421;-78
2021/07/07 10:26:38;;;;;;;4.97;2.08;;;;;;;35.01;28.40;99947.84;4404306;32;20073;-77
2021/07/07 10:29:05;;;;;;;2.50;1.42;;;;;;;34.65;28.35;99960.72;4399792;32;20127;-79
2021/07/07 10:31:54;;;;;;;3.47;1.60;;;;;;;33.88;27.68;99954.56;4397395;32;20372;-76
2021/07/07 10:34:22;;;;;;;4.05;1.90;;;;;;;34.12;27.90;99952.59;4394642;32;20066;-76
2021/07/07 10:37:58;;;;;;;4.32;1.77;;;;;;;34.36;28.27;99958.00;4405531;32;20115;-76
2021/07/07 10:40:28;;;;;;;3.90;1.50;;;;;;;34.77;27.57;99970.34;4396510;32;20169;-75
2021/07/07 10:42:55;;;;;;;5.22;1.98;;;;;;;35.23;26.63;99978.56;4389950;32;20057;-77
2021/07/07 10:45:43;;;;;;;3.83;1.67;;;;;;;34.73;27.60;99983.91;4394557;32;20064;-77
2021/07/07 10:51:24;;;;;;;5.22;2.00;;;;;;;36.08;25.84;99988.63;3953324;32;15610170;-78
2021/07/07 10:53:49;;;;;;;3.15;1.73;;;;;;;36.33;25.11;99985.06;4425083;32;20045;-76
2021/07/07 10:56:17;;;;;;;2.50;1.87;;;;;;;35.88;25.58;99976.38;4425303;32;20075;-76
2021/07/07 10:58:43;;;;;;;3.40;2.00;;;;;;;34.72;26.59;99976.53;4424211;32;20348;-74
2021/07/07 11:01:38;;;;;;;4.55;1.80;;;;;;;34.21;26.91;99975.88;4424601;32;20041;-75
2021/07/07 11:04:05;;;;;;;7.53;3.30;;;;;;;33.97;27.31;99979.25;4412698;32;20908;-76
2021/07/07 11:06:37;;;;;;;5.40;2.12;;;;;;;33.69;28.11;99974.25;4411651;32;20084;-74
2021/07/07 11:11:44;;;;;;;2.37;1.87;;;;;;;34.66;27.04;99985.63;3971245;32;15025423;-75
2021/07/07 11:14:27;;;;;;;3.80;2.12;;;;;;;34.54;27.17;99989.88;4426507;32;20066;-75
2021/07/07 11:17:00;;;;;;;3.80;1.62;;;;;;;34.15;27.20;99995.16;4430254;32;20071;-77
2021/07/07 11:19:44;;;;;;;2.75;1.98;;;;;;;33.67;27.73;99995.31;4427234;32;20081;-75
2021/07/07 11:22:11;;;;;;;4.85;2.78;;;;;;;33.72;27.45;100013.87;4429540;32;20575;-75
2021/07/07 11:24:44;;;;;;;7.25;2.40;;;;;;;32.93;28.96;100007.19;4428203;32;20210;-74
2021/07/07 11:27:10;;;;;;;4.78;2.10;;;;;;;33.52;28.79;100015.28;4428643;32;20122;-77
2021/07/07 11:29:36;;;;;;;2.70;1.90;;;;;;;31.72;31.01;100017.13;4426619;32;20487;-76
2021/07/07 11:32:21;;;;;;;3.35;2.17;;;;;;;32.09;30.98;100009.97;4427592;32;20305;-74
2021/07/07 11:34:50;;;;;;;5.82;2.05;;;;;;;32.34;30.98;100028.03;4430741;32;20565;-78
2021/07/07 11:37:16;;;;;;;3.20;1.70;;;;;;;31.67;32.39;100018.19;4429150;32;21230;-77
2021/07/07 11:39:42;;;;;;;5.18;1.52;;;;;;;31.73;32.27;100035.38;4430732;32;20075;-75
2021/07/07 11:42:08;;;;;;;1.87;1.12;;;;;;;32.29;31.56;100023.25;4428984;32;20124;-76